sensor_id;sensor_type;location;lat;lon;timestamp;pressure;altitude;pressure_sealevel;temperature;humidity
47104;BME280;32853;52.164;5.400;2023-04-06T00:00:54;101776.16;;;7.84;64.03
47104;BME280;32853;52.164;5.400;2023-04-06T00:03:35;101771.00;;;7.81;63.44
47104;BME280;32853;52.164;5.400;2023-04-06T00:06:13;101770.94;;;7.85;63.18
47104;BME280;32853;52.164;5.400;2023-04-06T00:08:42;101778.75;;;7.85;63.74
47104;BME280;32853;52.164;5.400;2023-04-06T00:11:08;101777.03;;;7.84;64.10
47104;BME280;32853;52.164;5.400;2023-04-06T00:13:33;101762.38;;;7.76;63.92
47104;BME280;32853;52.164;5.400;2023-04-06T00:15:59;101768.50;;;7.73;64.14
47104;BME280;32853;52.164;5.400;2023-04-06T00:18:24;101773.72;;;7.72;64.32
47104;BME280;32853;52.164;5.400;2023-04-06T00:20:49;101702.94;;;7.45;63.78
47104;BME280;32853;52.164;5.400;2023-04-06T00:23:16;101710.72;;;7.47;64.09
47104;BME280;32853;52.164;5.400;2023-04-06T00:25:41;101745.13;;;7.69;64.21
47104;BME280;32853;52.164;5.400;2023-04-06T00:28:06;101760.63;;;7.79;63.92
47104;BME280;32853;52.164;5.400;2023-04-06T00:30:32;101684.88;;;7.33;63.90
47104;BME280;32853;52.164;5.400;2023-04-06T00:33:06;101754.59;;;7.74;64.30
47104;BME280;32853;52.164;5.400;2023-04-06T00:35:34;101746.75;;;7.76;63.83
47104;BME280;32853;52.164;5.400;2023-04-06T00:38:02;101687.53;;;7.27;65.24
47104;BME280;32853;52.164;5.400;2023-04-06T00:40:31;101734.06;;;7.54;65.34
47104;BME280;32853;52.164;5.400;2023-04-06T00:43:14;101740.03;;;7.60;65.12
47104;BME280;32853;52.164;5.400;2023-04-06T00:45:45;101739.28;;;7.51;65.09
47104;BME280;32853;52.164;5.400;2023-04-06T00:48:13;101734.16;;;7.45;65.54
47104;BME280;32853;52.164;5.400;2023-04-06T00:50:48;101668.69;;;7.11;65.56
47104;BME280;32853;52.164;5.400;2023-04-06T00:53:25;101722.94;;;7.40;65.59
47104;BME280;32853;52.164;5.400;2023-04-06T00:56:02;101705.72;;;7.30;66.28
47104;BME280;32853;52.164;5.400;2023-04-06T00:58:28;101724.69;;;7.38;66.43
47104;BME280;32853;52.164;5.400;2023-04-06T01:00:54;101714.47;;;7.24;65.74
47104;BME280;32853;52.164;5.400;2023-04-06T01:03:19;101656.81;;;6.86;66.83
47104;BME280;32853;52.164;5.400;2023-04-06T01:05:45;101719.78;;;7.15;67.79
47104;BME280;32853;52.164;5.400;2023-04-06T01:08:11;101709.31;;;7.21;67.89
47104;BME280;32853;52.164;5.400;2023-04-06T01:10:36;101662.09;;;6.80;68.91
47104;BME280;32853;52.164;5.400;2023-04-06T01:13:03;101696.47;;;7.06;69.85
47104;BME280;32853;52.164;5.400;2023-04-06T01:15:40;101647.38;;;6.79;69.62
47104;BME280;32853;52.164;5.400;2023-04-06T01:18:28;101700.69;;;7.16;68.53
47104;BME280;32853;52.164;5.400;2023-04-06T01:21:07;101680.97;;;6.97;67.92
47104;BME280;32853;52.164;5.400;2023-04-06T01:23:44;101692.16;;;7.05;67.15
47104;BME280;32853;52.164;5.400;2023-04-06T01:26:24;101694.00;;;6.94;67.82
47104;BME280;32853;52.164;5.400;2023-04-06T01:29:04;101650.91;;;6.72;67.60
47104;BME280;32853;52.164;5.400;2023-04-06T01:32:02;101689.66;;;6.94;67.50
47104;BME280;32853;52.164;5.400;2023-04-06T01:34:28;101690.63;;;6.87;66.86
47104;BME280;32853;52.164;5.400;2023-04-06T01:36:56;101640.66;;;6.59;66.95
47104;BME280;32853;52.164;5.400;2023-04-06T01:39:30;101611.41;;;6.40;67.46
47104;BME280;32853;52.164;5.400;2023-04-06T01:41:57;101675.06;;;6.83;67.55
47104;BME280;32853;52.164;5.400;2023-04-06T01:44:23;101614.00;;;6.40;67.25
47104;BME280;32853;52.164;5.400;2023-04-06T01:46:51;101675.16;;;6.74;67.70
47104;BME280;32853;52.164;5.400;2023-04-06T01:49:16;101669.16;;;6.68;67.87
47104;BME280;32853;52.164;5.400;2023-04-06T01:51:42;101634.72;;;6.48;68.75
47104;BME280;32853;52.164;5.400;2023-04-06T01:54:07;101602.00;;;6.32;68.13
47104;BME280;32853;52.164;5.400;2023-04-06T01:56:32;101582.22;;;6.16;68.66
47104;BME280;32853;52.164;5.400;2023-04-06T01:58:57;101478.88;;;5.61;68.55
47104;BME280;32853;52.164;5.400;2023-04-06T02:01:23;101649.28;;;6.66;68.50
47104;BME280;32853;52.164;5.400;2023-04-06T02:03:48;101619.19;;;6.44;68.65
47104;BME280;32853;52.164;5.400;2023-04-06T02:06:13;101613.94;;;6.48;68.66
47104;BME280;32853;52.164;5.400;2023-04-06T02:08:54;101639.69;;;6.69;67.86
47104;BME280;32853;52.164;5.400;2023-04-06T02:11:40;101640.34;;;6.88;68.75
47104;BME280;32853;52.164;5.400;2023-04-06T02:14:05;101624.97;;;6.68;67.34
47104;BME280;32853;52.164;5.400;2023-04-06T02:16:30;101617.19;;;6.67;67.41
47104;BME280;32853;52.164;5.400;2023-04-06T02:18:57;101599.16;;;6.52;68.55
47104;BME280;32853;52.164;5.400;2023-04-06T02:21:28;101637.84;;;6.76;68.96
47104;BME280;32853;52.164;5.400;2023-04-06T02:24:01;101617.06;;;6.76;67.35
47104;BME280;32853;52.164;5.400;2023-04-06T02:26:28;101617.00;;;6.82;66.63
47104;BME280;32853;52.164;5.400;2023-04-06T02:28:53;101632.59;;;6.82;66.96
47104;BME280;32853;52.164;5.400;2023-04-06T02:31:19;101631.72;;;6.83;67.91
47104;BME280;32853;52.164;5.400;2023-04-06T02:33:46;101630.72;;;6.95;66.88
47104;BME280;32853;52.164;5.400;2023-04-06T02:36:11;101628.16;;;6.92;66.45
47104;BME280;32853;52.164;5.400;2023-04-06T02:38:46;101603.94;;;6.87;65.72
47104;BME280;32853;52.164;5.400;2023-04-06T02:41:13;101610.84;;;6.91;65.15
47104;BME280;32853;52.164;5.400;2023-04-06T02:43:38;101607.47;;;6.83;66.55
47104;BME280;32853;52.164;5.400;2023-04-06T02:46:04;101560.91;;;6.66;65.70
47104;BME280;32853;52.164;5.400;2023-04-06T02:48:52;101607.19;;;7.04;65.46
47104;BME280;32853;52.164;5.400;2023-04-06T02:51:23;101594.28;;;6.99;65.80
47104;BME280;32853;52.164;5.400;2023-04-06T02:53:53;101614.22;;;6.99;66.46
47104;BME280;32853;52.164;5.400;2023-04-06T02:56:30;101599.28;;;7.13;65.71
47104;BME280;32853;52.164;5.400;2023-04-06T02:58:57;101520.22;;;6.62;67.76
47104;BME280;32853;52.164;5.400;2023-04-06T03:01:22;101576.00;;;7.03;65.94
47104;BME280;32853;52.164;5.400;2023-04-06T03:03:48;101599.31;;;7.09;65.50
47104;BME280;32853;52.164;5.400;2023-04-06T03:06:13;101600.97;;;7.16;65.65
47104;BME280;32853;52.164;5.400;2023-04-06T03:08:45;101589.66;;;7.18;64.96
47104;BME280;32853;52.164;5.400;2023-04-06T03:11:29;101526.94;;;6.78;65.45
47104;BME280;32853;52.164;5.400;2023-04-06T03:13:54;101527.72;;;6.83;64.96
47104;BME280;32853;52.164;5.400;2023-04-06T03:16:32;101570.75;;;7.06;65.03
47104;BME280;32853;52.164;5.400;2023-04-06T03:18:57;101576.69;;;7.17;63.95
47104;BME280;32853;52.164;5.400;2023-04-06T03:21:31;101587.09;;;7.15;64.51
47104;BME280;32853;52.164;5.400;2023-04-06T03:23:57;101529.44;;;6.87;64.15
47104;BME280;32853;52.164;5.400;2023-04-06T03:26:32;101572.16;;;7.29;63.82
47104;BME280;32853;52.164;5.400;2023-04-06T03:29:10;101578.31;;;7.24;63.00
47104;BME280;32853;52.164;5.400;2023-04-06T03:31:36;101580.06;;;7.23;63.56
47104;BME280;32853;52.164;5.400;2023-04-06T03:34:05;101564.63;;;7.11;64.05
47104;BME280;32853;52.164;5.400;2023-04-06T03:36:31;101585.50;;;7.05;63.10
47104;BME280;32853;52.164;5.400;2023-04-06T03:38:56;101560.47;;;6.96;64.02
47104;BME280;32853;52.164;5.400;2023-04-06T03:41:34;101531.13;;;6.90;63.31
47104;BME280;32853;52.164;5.400;2023-04-06T03:44:13;101575.88;;;7.13;64.56
47104;BME280;32853;52.164;5.400;2023-04-06T03:46:39;101516.53;;;6.80;63.75
47104;BME280;32853;52.164;5.400;2023-04-06T03:49:10;101532.00;;;6.89;62.89
47104;BME280;32853;52.164;5.400;2023-04-06T03:51:43;101554.41;;;6.96;63.18
47104;BME280;32853;52.164;5.400;2023-04-06T03:54:08;101499.38;;;6.65;62.92
47104;BME280;32853;52.164;5.400;2023-04-06T03:56:35;101550.84;;;7.05;63.53
47104;BME280;32853;52.164;5.400;2023-04-06T03:59:02;101561.03;;;7.21;62.23
47104;BME280;32853;52.164;5.400;2023-04-06T04:01:32;101534.31;;;7.07;62.73
47104;BME280;32853;52.164;5.400;2023-04-06T04:03:57;101493.19;;;6.74;62.80
47104;BME280;32853;52.164;5.400;2023-04-06T04:06:23;101482.75;;;6.78;61.92
47104;BME280;32853;52.164;5.400;2023-04-06T04:08:48;101550.69;;;7.15;61.92
47104;BME280;32853;52.164;5.400;2023-04-06T04:11:20;101492.16;;;6.88;61.59
47104;BME280;32853;52.164;5.400;2023-04-06T04:13:49;101552.38;;;7.21;62.18
47104;BME280;32853;52.164;5.400;2023-04-06T04:16:18;101552.50;;;7.12;63.02
47104;BME280;32853;52.164;5.400;2023-04-06T04:19:03;101548.81;;;7.25;61.61
47104;BME280;32853;52.164;5.400;2023-04-06T04:21:49;101555.81;;;7.20;60.94
47104;BME280;32853;52.164;5.400;2023-04-06T04:24:25;101542.81;;;7.20;61.16
47104;BME280;32853;52.164;5.400;2023-04-06T04:27:04;101527.28;;;7.15;61.02
47104;BME280;32853;52.164;5.400;2023-04-06T04:29:33;101554.06;;;7.20;61.61
47104;BME280;32853;52.164;5.400;2023-04-06T04:31:58;101539.56;;;7.06;62.43
47104;BME280;32853;52.164;5.400;2023-04-06T04:34:27;101558.41;;;7.21;62.10
47104;BME280;32853;52.164;5.400;2023-04-06T04:37:07;101538.63;;;7.11;62.24
47104;BME280;32853;52.164;5.400;2023-04-06T04:39:48;101499.06;;;6.89;63.22
47104;BME280;32853;52.164;5.400;2023-04-06T04:42:15;101550.53;;;7.26;62.80
47104;BME280;32853;52.164;5.400;2023-04-06T04:44:41;101552.19;;;7.30;61.51
47104;BME280;32853;52.164;5.400;2023-04-06T04:47:08;101546.19;;;7.26;62.29
47104;BME280;32853;52.164;5.400;2023-04-06T04:49:33;101547.09;;;7.24;61.85
47104;BME280;32853;52.164;5.400;2023-04-06T04:51:58;101479.22;;;6.82;62.48
47104;BME280;32853;52.164;5.400;2023-04-06T04:54:24;101543.69;;;7.19;62.91
47104;BME280;32853;52.164;5.400;2023-04-06T04:56:49;101480.97;;;6.80;62.28
47104;BME280;32853;52.164;5.400;2023-04-06T04:59:20;101529.97;;;7.09;63.35
47104;BME280;32853;52.164;5.400;2023-04-06T05:01:50;101542.84;;;7.18;62.36
47104;BME280;32853;52.164;5.400;2023-04-06T05:04:16;101553.25;;;7.17;62.77
47104;BME280;32853;52.164;5.400;2023-04-06T05:06:41;101530.84;;;7.08;62.74
47104;BME280;32853;52.164;5.400;2023-04-06T05:09:06;101536.75;;;7.21;62.42
47104;BME280;32853;52.164;5.400;2023-04-06T05:11:31;101506.63;;;7.05;61.92
47104;BME280;32853;52.164;5.400;2023-04-06T05:13:57;101480.81;;;6.92;62.50
47104;BME280;32853;52.164;5.400;2023-04-06T05:16:22;101522.16;;;7.11;62.56
47104;BME280;32853;52.164;5.400;2023-04-06T05:18:48;101534.34;;;7.06;63.78
47104;BME280;32853;52.164;5.400;2023-04-06T05:21:13;101543.72;;;7.17;63.51
47104;BME280;32853;52.164;5.400;2023-04-06T05:23:39;101544.41;;;7.32;62.78
47104;BME280;32853;52.164;5.400;2023-04-06T05:26:05;101541.81;;;7.28;63.50
47104;BME280;32853;52.164;5.400;2023-04-06T05:28:32;101540.06;;;7.29;63.20
47104;BME280;32853;52.164;5.400;2023-04-06T05:30:58;101464.34;;;6.92;62.50
47104;BME280;32853;52.164;5.400;2023-04-06T05:33:23;101540.84;;;7.36;62.62
47104;BME280;32853;52.164;5.400;2023-04-06T05:35:49;101529.66;;;7.32;63.39
47104;BME280;32853;52.164;5.400;2023-04-06T05:38:15;101533.00;;;7.39;63.61
47104;BME280;32853;52.164;5.400;2023-04-06T05:40:41;101543.53;;;7.29;63.50
47104;BME280;32853;52.164;5.400;2023-04-06T05:43:07;101514.13;;;7.24;64.24
47104;BME280;32853;52.164;5.400;2023-04-06T05:45:33;101546.00;;;7.39;64.96
47104;BME280;32853;52.164;5.400;2023-04-06T05:47:58;101524.41;;;7.34;63.88
47104;BME280;32853;52.164;5.400;2023-04-06T05:50:23;101513.25;;;7.25;64.59
47104;BME280;32853;52.164;5.400;2023-04-06T05:52:50;101525.19;;;7.39;64.43
47104;BME280;32853;52.164;5.400;2023-04-06T05:55:15;101510.56;;;7.32;65.26
47104;BME280;32853;52.164;5.400;2023-04-06T05:57:40;101511.41;;;7.34;64.30
47104;BME280;32853;52.164;5.400;2023-04-06T06:00:06;101521.63;;;7.46;64.50
47104;BME280;32853;52.164;5.400;2023-04-06T06:02:34;101523.22;;;7.54;63.66
47104;BME280;32853;52.164;5.400;2023-04-06T06:05:00;101500.06;;;7.38;63.85
47104;BME280;32853;52.164;5.400;2023-04-06T06:07:30;101454.69;;;7.00;64.86
47104;BME280;32853;52.164;5.400;2023-04-06T06:09:57;101525.09;;;7.45;64.71
47104;BME280;32853;52.164;5.400;2023-04-06T06:12:23;101525.69;;;7.61;65.05
47104;BME280;32853;52.164;5.400;2023-04-06T06:14:48;101520.50;;;7.61;63.79
47104;BME280;32853;52.164;5.400;2023-04-06T06:17:13;101512.63;;;7.65;64.26
47104;BME280;32853;52.164;5.400;2023-04-06T06:19:41;101525.44;;;7.76;64.00
47104;BME280;32853;52.164;5.400;2023-04-06T06:22:06;101519.31;;;7.80;63.20
47104;BME280;32853;52.164;5.400;2023-04-06T06:24:31;101497.75;;;7.72;63.03
47104;BME280;32853;52.164;5.400;2023-04-06T06:26:57;101515.00;;;7.77;63.83
47104;BME280;32853;52.164;5.400;2023-04-06T06:29:22;101512.41;;;7.77;64.38
47104;BME280;32853;52.164;5.400;2023-04-06T06:31:49;101508.06;;;7.78;63.35
47104;BME280;32853;52.164;5.400;2023-04-06T06:34:14;101514.00;;;7.84;63.59
47104;BME280;32853;52.164;5.400;2023-04-06T06:36:39;101519.06;;;7.94;63.67
47104;BME280;32853;52.164;5.400;2023-04-06T06:39:05;101528.63;;;7.93;63.50
47104;BME280;32853;52.164;5.400;2023-04-06T06:41:33;101464.94;;;7.62;64.03
47104;BME280;32853;52.164;5.400;2023-04-06T06:43:58;101503.44;;;7.94;64.14
47104;BME280;32853;52.164;5.400;2023-04-06T06:46:24;101512.03;;;7.99;65.00
47104;BME280;32853;52.164;5.400;2023-04-06T06:49:06;101459.47;;;7.77;65.26
47104;BME280;32853;52.164;5.400;2023-04-06T06:51:31;101514.25;;;8.19;64.40
47104;BME280;32853;52.164;5.400;2023-04-06T06:53:58;101519.31;;;8.26;64.85
47104;BME280;32853;52.164;5.400;2023-04-06T06:56:24;101495.28;;;8.12;63.89
47104;BME280;32853;52.164;5.400;2023-04-06T06:58:51;101494.50;;;8.07;64.54
47104;BME280;32853;52.164;5.400;2023-04-06T07:01:17;101510.56;;;8.29;64.66
47104;BME280;32853;52.164;5.400;2023-04-06T07:03:42;101512.06;;;8.42;63.77
47104;BME280;32853;52.164;5.400;2023-04-06T07:06:08;101477.50;;;8.32;63.48
47104;BME280;32853;52.164;5.400;2023-04-06T07:08:51;101509.25;;;8.54;62.70
47104;BME280;32853;52.164;5.400;2023-04-06T07:11:31;101510.25;;;8.47;63.12
47104;BME280;32853;52.164;5.400;2023-04-06T07:13:56;101504.00;;;8.56;62.89
47104;BME280;32853;52.164;5.400;2023-04-06T07:16:21;101504.06;;;8.51;63.13
47104;BME280;32853;52.164;5.400;2023-04-06T07:18:48;101490.16;;;8.51;63.13
47104;BME280;32853;52.164;5.400;2023-04-06T07:21:13;101445.53;;;8.24;63.23
47104;BME280;32853;52.164;5.400;2023-04-06T07:23:43;101497.91;;;8.55;63.15
47104;BME280;32853;52.164;5.400;2023-04-06T07:26:08;101496.91;;;8.61;63.13
47104;BME280;32853;52.164;5.400;2023-04-06T07:28:34;101430.19;;;8.10;62.91
47104;BME280;32853;52.164;5.400;2023-04-06T07:30:59;101495.19;;;8.60;63.28
47104;BME280;32853;52.164;5.400;2023-04-06T07:33:41;101479.63;;;8.57;63.57
47104;BME280;32853;52.164;5.400;2023-04-06T07:36:06;101478.81;;;8.53;63.20
47104;BME280;32853;52.164;5.400;2023-04-06T07:38:35;101498.38;;;8.74;62.40
47104;BME280;32853;52.164;5.400;2023-04-06T07:41:01;101503.53;;;8.77;61.88
47104;BME280;32853;52.164;5.400;2023-04-06T07:43:29;101443.44;;;8.41;61.72
47104;BME280;32853;52.164;5.400;2023-04-06T07:45:58;101445.13;;;8.46;61.18
47104;BME280;32853;52.164;5.400;2023-04-06T07:48:32;101489.88;;;8.66;61.97
47104;BME280;32853;52.164;5.400;2023-04-06T07:51:02;101499.00;;;8.85;62.15
47104;BME280;32853;52.164;5.400;2023-04-06T07:53:27;101436.75;;;8.70;61.37
47104;BME280;32853;52.164;5.400;2023-04-06T07:55:53;101505.63;;;9.00;61.82
47104;BME280;32853;52.164;5.400;2023-04-06T07:58:31;101477.84;;;8.99;61.22
47104;BME280;32853;52.164;5.400;2023-04-06T08:00:56;101472.38;;;9.10;61.01
47104;BME280;32853;52.164;5.400;2023-04-06T08:03:22;101475.88;;;9.07;61.15
47104;BME280;32853;52.164;5.400;2023-04-06T08:05:51;101434.47;;;8.56;61.94
47104;BME280;32853;52.164;5.400;2023-04-06T08:08:19;101508.03;;;9.08;61.73
47104;BME280;32853;52.164;5.400;2023-04-06T08:10:47;101498.47;;;9.08;61.72
47104;BME280;32853;52.164;5.400;2023-04-06T08:13:17;101508.66;;;9.19;61.36
47104;BME280;32853;52.164;5.400;2023-04-06T08:15:42;101437.16;;;8.90;62.57
47104;BME280;32853;52.164;5.400;2023-04-06T08:18:08;101456.16;;;8.95;62.38
47104;BME280;32853;52.164;5.400;2023-04-06T08:20:34;101492.13;;;9.18;62.33
47104;BME280;32853;52.164;5.400;2023-04-06T08:23:01;101497.06;;;9.30;62.14
47104;BME280;32853;52.164;5.400;2023-04-06T08:25:26;101339.13;;;8.44;61.49
47104;BME280;32853;52.164;5.400;2023-04-06T08:27:52;101468.44;;;9.27;61.53
47104;BME280;32853;52.164;5.400;2023-04-06T08:30:17;101417.16;;;8.91;61.60
47104;BME280;32853;52.164;5.400;2023-04-06T08:32:44;101492.22;;;9.51;61.98
47104;BME280;32853;52.164;5.400;2023-04-06T08:35:10;101490.63;;;9.45;62.18
47104;BME280;32853;52.164;5.400;2023-04-06T08:37:35;101432.13;;;9.18;62.70
47104;BME280;32853;52.164;5.400;2023-04-06T08:40:08;101488.56;;;9.58;62.32
47104;BME280;32853;52.164;5.400;2023-04-06T08:42:44;101492.72;;;9.67;62.26
47104;BME280;32853;52.164;5.400;2023-04-06T08:45:22;101476.94;;;9.70;62.78
47104;BME280;32853;52.164;5.400;2023-04-06T08:47:50;101435.56;;;9.54;62.47
47104;BME280;32853;52.164;5.400;2023-04-06T08:50:18;101484.69;;;9.73;62.25
47104;BME280;32853;52.164;5.400;2023-04-06T08:52:47;101486.13;;;9.84;62.25
47104;BME280;32853;52.164;5.400;2023-04-06T08:55:14;101458.91;;;9.60;63.24
47104;BME280;32853;52.164;5.400;2023-04-06T08:57:42;101459.47;;;9.72;63.68
47104;BME280;32853;52.164;5.400;2023-04-06T09:00:10;101456.53;;;9.84;63.52
47104;BME280;32853;52.164;5.400;2023-04-06T09:02:39;101479.19;;;10.16;63.30
47104;BME280;32853;52.164;5.400;2023-04-06T09:05:07;101492.63;;;10.35;62.68
47104;BME280;32853;52.164;5.400;2023-04-06T09:07:32;101494.25;;;10.39;62.16
47104;BME280;32853;52.164;5.400;2023-04-06T09:09:58;101489.41;;;10.25;62.32
47104;BME280;32853;52.164;5.400;2023-04-06T09:12:27;101504.16;;;10.28;62.64
47104;BME280;32853;52.164;5.400;2023-04-06T09:14:54;101492.78;;;10.29;63.17
47104;BME280;32853;52.164;5.400;2023-04-06T09:17:25;101489.75;;;10.44;63.57
47104;BME280;32853;52.164;5.400;2023-04-06T09:19:54;101486.00;;;10.53;63.00
47104;BME280;32853;52.164;5.400;2023-04-06T09:22:23;101465.22;;;10.48;62.46
47104;BME280;32853;52.164;5.400;2023-04-06T09:24:53;101428.03;;;10.38;62.07
47104;BME280;32853;52.164;5.400;2023-04-06T09:27:32;101471.53;;;10.70;63.29
47104;BME280;32853;52.164;5.400;2023-04-06T09:30:16;101474.50;;;10.88;62.64
47104;BME280;32853;52.164;5.400;2023-04-06T09:32:50;101489.66;;;11.04;62.75
47104;BME280;32853;52.164;5.400;2023-04-06T09:35:35;101492.97;;;11.11;62.47
47104;BME280;32853;52.164;5.400;2023-04-06T09:38:10;101460.03;;;10.76;63.41
47104;BME280;32853;52.164;5.400;2023-04-06T09:40:53;101474.34;;;10.92;62.90
47104;BME280;32853;52.164;5.400;2023-04-06T09:43:26;101489.13;;;11.21;63.16
47104;BME280;32853;52.164;5.400;2023-04-06T09:45:52;101491.66;;;11.24;62.83
47104;BME280;32853;52.164;5.400;2023-04-06T09:48:27;101492.16;;;11.35;61.82
47104;BME280;32853;52.164;5.400;2023-04-06T09:50:59;101488.81;;;11.32;63.19
47104;BME280;32853;52.164;5.400;2023-04-06T09:53:38;101484.06;;;11.43;62.75
47104;BME280;32853;52.164;5.400;2023-04-06T09:56:05;101485.50;;;11.52;63.27
47104;BME280;32853;52.164;5.400;2023-04-06T09:58:37;101483.16;;;11.44;64.24
47104;BME280;32853;52.164;5.400;2023-04-06T10:01:15;101482.19;;;11.47;65.42
47104;BME280;32853;52.164;5.400;2023-04-06T10:03:52;101498.09;;;11.67;68.58
47104;BME280;32853;52.164;5.400;2023-04-06T10:06:31;101398.84;;;11.06;70.98
47104;BME280;32853;52.164;5.400;2023-04-06T10:09:02;101484.75;;;11.48;73.35
47104;BME280;32853;52.164;5.400;2023-04-06T10:11:42;101340.78;;;10.69;74.19
47104;BME280;32853;52.164;5.400;2023-04-06T10:14:07;101451.97;;;11.37;75.52
47104;BME280;32853;52.164;5.400;2023-04-06T10:16:33;101494.47;;;11.71;76.25
47104;BME280;32853;52.164;5.400;2023-04-06T10:19:06;101409.94;;;11.15;77.09
47104;BME280;32853;52.164;5.400;2023-04-06T10:21:38;101442.59;;;11.29;79.18
47104;BME280;32853;52.164;5.400;2023-04-06T10:24:08;101431.50;;;11.23;83.67
47104;BME280;32853;52.164;5.400;2023-04-06T10:27:03;101499.66;;;11.73;81.60
47104;BME280;32853;52.164;5.400;2023-04-06T10:29:28;101472.25;;;11.56;84.28
47104;BME280;32853;52.164;5.400;2023-04-06T10:32:05;101476.91;;;11.73;85.22
47104;BME280;32853;52.164;5.400;2023-04-06T10:34:34;101507.38;;;11.77;83.60
47104;BME280;32853;52.164;5.400;2023-04-06T10:37:10;101481.38;;;11.45;87.68
47104;BME280;32853;52.164;5.400;2023-04-06T10:39:45;101475.66;;;11.33;93.53
47104;BME280;32853;52.164;5.400;2023-04-06T10:42:24;101427.78;;;10.75;100.00
47104;BME280;32853;52.164;5.400;2023-04-06T10:44:49;101447.53;;;11.12;100.00
47104;BME280;32853;52.164;5.400;2023-04-06T10:47:16;101478.81;;;11.17;100.00
47104;BME280;32853;52.164;5.400;2023-04-06T10:49:45;101494.31;;;11.23;100.00
47104;BME280;32853;52.164;5.400;2023-04-06T10:52:10;101485.28;;;11.05;100.00
47104;BME280;32853;52.164;5.400;2023-04-06T10:54:41;101471.84;;;10.89;100.00
47104;BME280;32853;52.164;5.400;2023-04-06T10:57:07;101491.66;;;10.96;100.00
47104;BME280;32853;52.164;5.400;2023-04-06T10:59:32;101446.38;;;10.66;100.00
47104;BME280;32853;52.164;5.400;2023-04-06T11:01:58;101469.13;;;10.64;100.00
47104;BME280;32853;52.164;5.400;2023-04-06T11:04:26;101418.06;;;10.51;100.00
47104;BME280;32853;52.164;5.400;2023-04-06T11:06:54;101464.25;;;10.80;100.00
47104;BME280;32853;52.164;5.400;2023-04-06T11:09:29;101479.97;;;10.80;100.00
47104;BME280;32853;52.164;5.400;2023-04-06T11:11:59;101472.53;;;10.66;100.00
47104;BME280;32853;52.164;5.400;2023-04-06T11:14:25;101393.81;;;10.15;100.00
47104;BME280;32853;52.164;5.400;2023-04-06T11:16:51;101404.13;;;10.19;100.00
47104;BME280;32853;52.164;5.400;2023-04-06T11:19:17;101361.03;;;9.74;100.00
47104;BME280;32853;52.164;5.400;2023-04-06T11:21:44;101397.66;;;10.03;100.00
47104;BME280;32853;52.164;5.400;2023-04-06T11:24:14;101473.34;;;10.68;100.00
47104;BME280;32853;52.164;5.400;2023-04-06T11:26:47;101472.00;;;10.55;100.00
47104;BME280;32853;52.164;5.400;2023-04-06T11:29:15;101462.50;;;10.51;100.00
47104;BME280;32853;52.164;5.400;2023-04-06T11:31:46;101456.41;;;10.51;100.00
47104;BME280;32853;52.164;5.400;2023-04-06T11:34:23;101456.19;;;10.58;100.00
47104;BME280;32853;52.164;5.400;2023-04-06T11:36:55;101459.00;;;10.52;100.00
47104;BME280;32853;52.164;5.400;2023-04-06T11:39:23;101379.22;;;10.08;100.00
47104;BME280;32853;52.164;5.400;2023-04-06T11:41:54;101409.06;;;10.32;100.00
47104;BME280;32853;52.164;5.400;2023-04-06T11:47:01;101455.25;;;10.61;100.00
47104;BME280;32853;52.164;5.400;2023-04-06T11:49:31;101449.03;;;10.65;100.00
47104;BME280;32853;52.164;5.400;2023-04-06T11:52:32;101434.31;;;10.61;100.00
47104;BME280;32853;52.164;5.400;2023-04-06T11:54:58;101424.19;;;10.50;100.00
47104;BME280;32853;52.164;5.400;2023-04-06T11:57:23;101439.16;;;10.45;100.00
47104;BME280;32853;52.164;5.400;2023-04-06T11:59:56;101445.69;;;10.60;100.00
47104;BME280;32853;52.164;5.400;2023-04-06T12:02:21;101444.13;;;10.54;100.00
47104;BME280;32853;52.164;5.400;2023-04-06T12:04:47;101403.09;;;10.27;100.00
47104;BME280;32853;52.164;5.400;2023-04-06T12:07:21;101358.34;;;10.06;100.00
47104;BME280;32853;52.164;5.400;2023-04-06T12:09:56;101444.50;;;10.70;100.00
47104;BME280;32853;52.164;5.400;2023-04-06T12:12:29;101435.44;;;10.54;100.00
47104;BME280;32853;52.164;5.400;2023-04-06T12:14:56;101441.25;;;10.62;100.00
47104;BME280;32853;52.164;5.400;2023-04-06T12:17:21;101367.06;;;10.07;100.00
47104;BME280;32853;52.164;5.400;2023-04-06T12:19:46;101323.22;;;10.16;100.00
47104;BME280;32853;52.164;5.400;2023-04-06T12:22:25;101430.00;;;10.60;100.00
47104;BME280;32853;52.164;5.400;2023-04-06T12:24:50;101429.03;;;10.62;100.00
47104;BME280;32853;52.164;5.400;2023-04-06T12:27:23;101432.66;;;10.58;100.00
47104;BME280;32853;52.164;5.400;2023-04-06T12:29:57;101414.97;;;10.66;100.00
47104;BME280;32853;52.164;5.400;2023-04-06T12:32:22;101427.84;;;10.72;100.00
47104;BME280;32853;52.164;5.400;2023-04-06T12:34:54;101414.41;;;10.57;100.00
47104;BME280;32853;52.164;5.400;2023-04-06T12:37:20;101395.78;;;10.38;100.00
47104;BME280;32853;52.164;5.400;2023-04-06T12:39:46;101399.91;;;10.15;100.00
47104;BME280;32853;52.164;5.400;2023-04-06T12:42:11;101425.59;;;10.32;100.00
47104;BME280;32853;52.164;5.400;2023-04-06T12:44:37;101391.47;;;10.06;100.00
47104;BME280;32853;52.164;5.400;2023-04-06T12:47:03;101425.81;;;10.25;100.00
47104;BME280;32853;52.164;5.400;2023-04-06T12:49:28;101413.13;;;10.40;100.00
47104;BME280;32853;52.164;5.400;2023-04-06T12:51:55;101402.63;;;10.12;100.00
47104;BME280;32853;52.164;5.400;2023-04-06T12:54:21;101293.38;;;9.66;100.00
47104;BME280;32853;52.164;5.400;2023-04-06T12:56:47;101356.91;;;10.27;100.00
47104;BME280;32853;52.164;5.400;2023-04-06T12:59:13;101404.81;;;10.57;100.00
47104;BME280;32853;52.164;5.400;2023-04-06T13:01:39;101392.69;;;10.55;100.00
47104;BME280;32853;52.164;5.400;2023-04-06T13:04:04;101399.41;;;10.62;100.00
47104;BME280;32853;52.164;5.400;2023-04-06T13:06:30;101399.91;;;10.46;100.00
47104;BME280;32853;52.164;5.400;2023-04-06T13:08:58;101390.06;;;10.55;100.00